createdAt,value
2019-03-30T14:51:07.963Z,95219.83
2019-03-30T14:53:37.501Z,95226.61
2019-03-30T14:56:08.145Z,95259.60
2019-03-30T14:58:37.759Z,95271.79
2019-03-30T15:01:07.257Z,95260.08
2019-03-30T15:03:36.781Z,95275.52
2019-03-30T15:06:07.142Z,95269.88
2019-03-30T15:08:36.984Z,95268.29
2019-03-30T15:11:06.562Z,95269.45
2019-03-30T15:13:36.068Z,95276.44
2019-03-30T15:16:05.530Z,95269.88
2019-03-30T15:18:35.137Z,95269.22
2019-03-30T15:21:08.309Z,95275.34
2019-03-30T15:23:36.035Z,95278.70
2019-03-30T15:26:05.572Z,95282.52
2019-03-30T15:28:35.189Z,95277.19
2019-03-30T15:31:04.755Z,95275.50
2019-03-30T15:33:35.295Z,95279.52
2019-03-30T15:36:04.938Z,95276.11
2019-03-30T15:38:34.508Z,95283.42
2019-03-30T15:41:04.114Z,95284.06
2019-03-30T15:43:38.497Z,95283.34
2019-03-30T15:46:04.984Z,95278.00
2019-03-30T15:48:34.724Z,95286.79
2019-03-30T15:51:05.210Z,95289.91
2019-03-30T15:53:34.755Z,95292.47
2019-03-30T15:56:04.254Z,95297.20
2019-03-30T15:58:33.983Z,95290.25
2019-03-30T16:01:04.385Z,95290.72
2019-03-30T16:03:34.065Z,95297.43
2019-03-30T16:06:03.635Z,95304.39
2019-03-30T16:08:33.208Z,95303.12
2019-03-30T16:11:02.733Z,95308.73
2019-03-30T16:13:32.300Z,95302.09
2019-03-30T16:16:01.947Z,95307.87
2019-03-30T16:18:31.723Z,95317.53
2019-03-30T16:21:02.403Z,95318.02
2019-03-30T16:23:32.007Z,95322.13
2019-03-30T16:26:01.447Z,95323.80
2019-03-30T16:28:31.175Z,95323.98
2019-03-30T16:31:00.599Z,95331.23
2019-03-30T16:33:30.302Z,95333.62
2019-03-30T16:36:02.686Z,95330.24
2019-03-30T16:38:30.994Z,95338.98
2019-03-30T16:41:00.867Z,95334.91
2019-03-30T16:43:30.359Z,95340.86
2019-03-30T16:46:00.335Z,95345.83
2019-03-30T16:48:30.380Z,95353.46
2019-03-30T16:51:01.680Z,95352.95
2019-03-30T16:53:31.558Z,95304.64
2019-03-30T16:56:01.559Z,95356.87
2019-03-30T16:58:31.194Z,95359.14
2019-03-30T17:01:00.741Z,95363.20
2019-03-30T17:03:30.611Z,95351.90
2019-03-30T17:06:00.103Z,95357.92
2019-03-30T17:08:29.683Z,95362.25
2019-03-30T17:10:59.105Z,95352.27
2019-03-30T17:13:28.581Z,95358.56
2019-03-30T17:15:59.619Z,95362.00
2019-03-30T17:18:30.404Z,95362.80
2019-03-30T17:20:59.916Z,95366.09
2019-03-30T17:23:29.425Z,95376.77
2019-03-30T17:26:00.043Z,95379.24
2019-03-30T17:28:29.538Z,95372.32
2019-03-30T17:30:59.149Z,95369.30
2019-03-30T17:33:28.984Z,95376.13
2019-03-30T17:35:58.631Z,95377.52
2019-03-30T17:38:29.573Z,95378.92
2019-03-30T17:40:59.073Z,95376.17
2019-03-30T17:43:28.758Z,95367.77
2019-03-30T17:45:58.251Z,95390.13
2019-03-30T17:48:27.681Z,95390.74
2019-03-30T17:50:58.396Z,95390.19
2019-03-30T17:53:28.444Z,95397.58
2019-03-30T17:55:57.949Z,95394.59
2019-03-30T17:58:27.530Z,95398.55
2019-03-30T18:00:57.222Z,95409.80
2019-03-30T18:03:30.082Z,95406.17
2019-03-30T18:05:59.870Z,95415.42
2019-03-30T18:08:29.499Z,95411.36
2019-03-30T18:10:59.123Z,95413.19
2019-03-30T18:13:28.856Z,95410.80
2019-03-30T18:15:58.448Z,95411.71
2019-03-30T18:18:28.250Z,95410.73
2019-03-30T18:20:57.849Z,95413.77
2019-03-30T18:23:27.284Z,95408.86
2019-03-30T18:25:58.659Z,95410.48
2019-03-30T18:28:28.374Z,95418.75
2019-03-30T18:30:57.988Z,95411.61
2019-03-30T18:33:27.553Z,95405.61
2019-03-30T18:35:57.464Z,95410.97
2019-03-30T18:38:27.327Z,95421.23
2019-03-30T18:40:59.790Z,95419.55
2019-03-30T18:43:30.818Z,95413.56
2019-03-30T18:46:00.345Z,95420.83
2019-03-30T18:48:30.029Z,95428.79
2019-03-30T18:51:00.754Z,95427.96
2019-03-30T18:53:30.912Z,95435.09
2019-03-30T18:56:00.493Z,95442.92
2019-03-30T18:58:41.108Z,95446.16
2019-03-30T19:01:01.330Z,95459.48
2019-03-30T19:03:30.994Z,95449.38
2019-03-30T19:06:01.798Z,95459.12
2019-03-30T19:08:34.402Z,95450.53
2019-03-30T19:11:02.670Z,95457.87
2019-03-30T19:13:32.454Z,95460.95
2019-03-30T19:16:02.097Z,95463.99
2019-03-30T19:18:31.698Z,95468.45
2019-03-30T19:21:01.261Z,95454.81
2019-03-30T19:23:30.910Z,95472.00
2019-03-30T19:26:00.507Z,95467.59
2019-03-30T19:28:31.623Z,95469.80
2019-03-30T19:31:01.186Z,95465.73
2019-03-30T19:33:30.691Z,95474.62
2019-03-30T19:36:00.109Z,95470.27
2019-03-30T19:38:29.547Z,95479.74
2019-03-30T19:40:59.134Z,95475.48
2019-03-30T19:43:30.084Z,95477.09
2019-03-30T19:46:02.399Z,95489.45
2019-03-30T19:48:32.263Z,95489.91
2019-03-30T19:51:03.295Z,95486.03
2019-03-30T19:53:32.975Z,95481.87
2019-03-30T19:56:07.060Z,95482.72
2019-03-30T19:58:40.312Z,95490.73
2019-03-30T20:01:10.205Z,95488.14
2019-03-30T20:03:41.654Z,95483.92
2019-03-30T20:06:12.780Z,95502.71
2019-03-30T20:08:43.905Z,95490.36
2019-03-30T20:11:13.603Z,95489.30
2019-03-30T20:13:43.194Z,95499.74
2019-03-30T20:16:15.163Z,95508.33
2019-03-30T20:18:46.217Z,95511.39
2019-03-30T20:21:15.711Z,95506.46
2019-03-30T20:23:45.684Z,95501.03
2019-03-30T20:26:17.115Z,95497.66
2019-03-30T20:28:48.239Z,95496.55
2019-03-30T20:31:17.766Z,95500.51
2019-03-30T20:33:47.260Z,95488.66
2019-03-30T20:36:17.123Z,95489.95
2019-03-30T20:38:46.722Z,95491.08
2019-03-30T20:41:16.286Z,95491.58
2019-03-30T20:43:45.813Z,95491.22
2019-03-30T20:46:15.312Z,95493.16
2019-03-30T20:48:44.777Z,95495.38
2019-03-30T20:51:14.263Z,95496.02
2019-03-30T20:53:44.231Z,95491.06
2019-03-30T20:56:13.809Z,95491.23
2019-03-30T20:58:43.545Z,95489.02
2019-03-30T21:01:15.755Z,95475.77
2019-03-30T21:03:45.317Z,95479.25
2019-03-30T21:06:14.845Z,95484.97
2019-03-30T21:08:44.296Z,95487.31
2019-03-30T21:11:17.173Z,95495.80
2019-03-30T21:13:46.978Z,95482.86
2019-03-30T21:16:16.424Z,95485.89
2019-03-30T21:18:45.931Z,95481.73
2019-03-30T21:21:15.484Z,95486.52
2019-03-30T21:23:45.045Z,95481.06
2019-03-30T21:26:14.519Z,95481.58
2019-03-30T21:28:43.947Z,95483.30
2019-03-30T21:31:13.569Z,95476.65
2019-03-30T21:33:43.237Z,95472.78
2019-03-30T21:36:12.660Z,95470.41
2019-03-30T21:38:42.085Z,95476.86
2019-03-30T21:41:11.517Z,95482.30
2019-03-30T21:43:41.436Z,95473.36
2019-03-30T21:46:11.165Z,95479.59
2019-03-30T21:48:40.840Z,95476.52
2019-03-30T21:51:11.780Z,95478.27
2019-03-30T21:53:41.396Z,95478.73
2019-03-30T21:56:10.870Z,95477.79
2019-03-30T21:58:40.369Z,95473.20
2019-03-30T22:01:10.169Z,95475.91
2019-03-30T22:03:39.891Z,95473.53
2019-03-30T22:06:09.454Z,95476.89
2019-03-30T22:08:39.265Z,95470.52
2019-03-30T22:11:08.848Z,95462.55
2019-03-30T22:13:38.477Z,95464.77
2019-03-30T22:16:07.916Z,95465.25
2019-03-30T22:18:37.498Z,95463.12
2019-03-30T22:21:06.952Z,95468.23
2019-03-30T22:23:37.855Z,95461.91
2019-03-30T22:26:07.527Z,95456.33
2019-03-30T22:28:37.140Z,95462.06
2019-03-30T22:31:06.637Z,95462.38
2019-03-30T22:33:36.240Z,95462.67
2019-03-30T22:36:05.738Z,95467.45
2019-03-30T22:38:35.314Z,95465.87
2019-03-30T22:41:04.887Z,95468.63
2019-03-30T22:43:34.615Z,95461.19
2019-03-30T22:46:07.385Z,95467.44
2019-03-30T22:48:35.427Z,95463.95
2019-03-30T22:51:05.066Z,95455.40
2019-03-30T22:53:34.664Z,95462.33
2019-03-30T22:56:04.200Z,95455.58
2019-03-30T22:58:33.686Z,95469.34
2019-03-30T23:01:06.573Z,95463.45
2019-03-30T23:03:36.368Z,95465.07
2019-03-30T23:06:05.916Z,95451.75
2019-03-30T23:08:35.484Z,95454.47
2019-03-30T23:11:05.052Z,95457.20
2019-03-30T23:13:34.746Z,95448.89
2019-03-30T23:16:04.275Z,95451.42
2019-03-30T23:18:33.738Z,95442.34
2019-03-30T23:21:03.183Z,95445.97
2019-03-30T23:23:32.909Z,95439.20
2019-03-30T23:26:02.331Z,95445.39
2019-03-30T23:28:31.964Z,95411.09
2019-03-30T23:31:01.645Z,95437.38
2019-03-30T23:33:31.161Z,95425.02
2019-03-30T23:36:00.684Z,95439.41
2019-03-30T23:38:30.250Z,95420.52
2019-03-30T23:40:59.823Z,95421.73
2019-03-30T23:43:29.459Z,95422.79
2019-03-30T23:45:59.028Z,95424.31
2019-03-30T23:48:28.522Z,95432.11
2019-03-30T23:50:58.125Z,95424.81
2019-03-30T23:53:27.693Z,95420.25
2019-03-30T23:55:57.291Z,95415.79
2019-03-30T23:58:26.837Z,95419.75
